createdAt,value
2023-05-10T00:00:06.309Z,8.11
2023-05-10T00:01:06.359Z,7.98
2023-05-10T00:02:06.352Z,8.05
2023-05-10T00:03:06.516Z,8.08
2023-05-10T00:04:06.411Z,8.09
2023-05-10T00:05:06.483Z,7.94
2023-05-10T00:06:06.460Z,8.13
2023-05-10T00:07:06.470Z,8.12
2023-05-10T00:08:06.540Z,7.99
2023-05-10T00:09:06.500Z,7.88
2023-05-10T00:10:06.497Z,8.02
2023-05-10T00:11:06.535Z,7.96
2023-05-10T00:12:06.518Z,7.93
2023-05-10T00:13:06.594Z,7.94
2023-05-10T00:14:06.561Z,7.93
2023-05-10T00:15:06.562Z,8.01
2023-05-10T00:16:06.657Z,7.80
2023-05-10T00:17:06.617Z,7.86
2023-05-10T00:18:06.671Z,7.96
2023-05-10T00:19:06.654Z,7.91
2023-05-10T00:20:06.696Z,7.96
2023-05-10T00:21:06.675Z,7.88
2023-05-10T00:22:06.691Z,7.93
2023-05-10T00:23:06.724Z,7.84
2023-05-10T00:24:06.740Z,7.79
2023-05-10T00:25:06.735Z,7.78
2023-05-10T00:26:06.738Z,7.85
2023-05-10T00:27:06.751Z,7.74
2023-05-10T00:28:06.757Z,7.82
2023-05-10T00:29:06.756Z,7.83
2023-05-10T00:30:06.763Z,8.01
2023-05-10T00:31:06.790Z,7.87
2023-05-10T00:32:06.854Z,7.85
2023-05-10T00:33:06.842Z,7.84
2023-05-10T00:34:06.809Z,7.88
2023-05-10T00:35:06.839Z,7.78
2023-05-10T00:36:06.834Z,7.80
2023-05-10T00:37:06.820Z,7.94
2023-05-10T00:38:06.809Z,7.88
2023-05-10T00:39:06.840Z,7.83
2023-05-10T00:40:06.836Z,8.02
2023-05-10T00:41:06.844Z,7.92
2023-05-10T00:42:06.824Z,8.04
2023-05-10T00:43:06.818Z,7.97
2023-05-10T00:44:06.849Z,7.87
2023-05-10T00:45:06.828Z,7.77
2023-05-10T00:46:06.884Z,7.98
2023-05-10T00:47:06.843Z,7.96
2023-05-10T00:48:06.911Z,8.12
2023-05-10T00:49:06.855Z,7.75
2023-05-10T00:50:06.832Z,7.82
2023-05-10T00:51:06.837Z,7.89
2023-05-10T00:52:06.846Z,7.99
2023-05-10T00:53:06.880Z,8.00
2023-05-10T00:54:06.885Z,7.83
2023-05-10T00:55:06.859Z,7.71
2023-05-10T00:56:06.911Z,7.61
2023-05-10T00:57:06.849Z,7.67
2023-05-10T00:58:06.872Z,7.63
2023-05-10T00:59:06.861Z,7.66
2023-05-10T01:00:06.877Z,7.66
2023-05-10T01:01:06.924Z,7.34
2023-05-10T01:02:06.904Z,7.33
2023-05-10T01:03:07.057Z,7.47
2023-05-10T01:04:06.870Z,7.39
2023-05-10T01:05:06.904Z,7.53
2023-05-10T01:06:06.859Z,7.31
2023-05-10T01:07:06.912Z,7.37
2023-05-10T01:08:06.901Z,7.54
2023-05-10T01:09:06.904Z,7.48
2023-05-10T01:10:06.935Z,7.47
2023-05-10T01:11:06.902Z,7.52
2023-05-10T01:12:06.928Z,7.39
2023-05-10T01:13:06.934Z,7.43
2023-05-10T01:14:06.927Z,7.44
2023-05-10T01:15:06.985Z,7.55
2023-05-10T01:16:06.939Z,7.53
2023-05-10T01:17:06.942Z,7.33
2023-05-10T01:18:06.927Z,7.50
2023-05-10T01:19:06.941Z,7.57
2023-05-10T01:20:06.950Z,7.55
2023-05-10T01:21:06.954Z,7.40
2023-05-10T01:22:06.946Z,7.48
2023-05-10T01:23:06.983Z,7.39
2023-05-10T01:24:07.007Z,7.24
2023-05-10T01:25:07.009Z,7.41
2023-05-10T01:26:07.035Z,7.37
2023-05-10T01:27:07.080Z,7.59
2023-05-10T01:28:07.110Z,7.44
2023-05-10T01:29:07.100Z,7.39
2023-05-10T01:30:15.467Z,7.24
2023-05-10T01:31:08.154Z,7.26
2023-05-10T01:32:07.124Z,7.29
2023-05-10T01:33:07.162Z,7.31
2023-05-10T01:34:07.091Z,7.38
2023-05-10T01:35:07.092Z,7.51
2023-05-10T01:36:07.080Z,7.46
2023-05-10T01:37:07.099Z,7.48
2023-05-10T01:38:07.107Z,7.55
2023-05-10T01:39:07.057Z,7.49
2023-05-10T01:40:07.032Z,7.51
2023-05-10T01:41:07.036Z,7.57
2023-05-10T01:42:07.037Z,7.39
2023-05-10T01:43:07.050Z,7.46
2023-05-10T01:44:07.024Z,7.37
2023-05-10T01:45:07.025Z,7.52
2023-05-10T01:46:07.006Z,7.38
2023-05-10T01:47:06.968Z,7.44
2023-05-10T01:48:07.107Z,7.57
2023-05-10T01:49:07.016Z,7.48
2023-05-10T01:50:06.990Z,7.32
2023-05-10T01:51:06.989Z,7.54
2023-05-10T01:52:06.943Z,7.21
2023-05-10T01:53:06.960Z,7.59
2023-05-10T01:54:06.953Z,7.39
2023-05-10T01:55:06.919Z,7.42
2023-05-10T01:56:06.937Z,7.55
2023-05-10T01:57:06.931Z,7.37
2023-05-10T01:58:06.916Z,7.36
2023-05-10T01:59:06.926Z,7.26
2023-05-10T02:00:06.891Z,7.40
2023-05-10T02:01:06.956Z,7.46
2023-05-10T02:02:06.934Z,7.33
2023-05-10T02:03:06.965Z,7.33
2023-05-10T02:04:06.981Z,7.36
2023-05-10T02:05:06.924Z,7.37
2023-05-10T02:06:06.986Z,7.32
2023-05-10T02:07:06.989Z,7.35
2023-05-10T02:08:06.991Z,7.46
2023-05-10T02:09:06.979Z,7.38
2023-05-10T02:10:07.033Z,7.36
2023-05-10T02:11:07.039Z,7.31
2023-05-10T02:12:07.037Z,7.31
2023-05-10T02:13:07.120Z,7.36
2023-05-10T02:14:07.056Z,7.20
2023-05-10T02:15:07.059Z,7.39
2023-05-10T02:16:07.121Z,7.26
2023-05-10T02:17:07.086Z,7.34
2023-05-10T02:18:07.272Z,7.16
2023-05-10T02:19:07.120Z,7.34
2023-05-10T02:20:07.131Z,7.23
2023-05-10T02:21:07.106Z,7.27
2023-05-10T02:22:07.107Z,7.32
2023-05-10T02:23:07.154Z,7.31
2023-05-10T02:24:07.127Z,7.25
2023-05-10T02:25:07.157Z,7.26
2023-05-10T02:26:07.189Z,7.37
2023-05-10T02:27:07.226Z,7.26
2023-05-10T02:28:07.223Z,7.15
2023-05-10T02:29:07.191Z,7.19
2023-05-10T02:30:07.223Z,7.29
2023-05-10T02:31:07.254Z,7.31
2023-05-10T02:32:07.338Z,7.07
2023-05-10T02:33:07.379Z,7.17
2023-05-10T02:34:07.310Z,7.21
2023-05-10T02:35:07.327Z,7.27
2023-05-10T02:36:07.632Z,7.29
2023-05-10T02:37:07.324Z,7.17
2023-05-10T02:38:07.350Z,7.15
2023-05-10T02:39:07.346Z,7.15
2023-05-10T02:40:07.374Z,7.35
2023-05-10T02:41:07.408Z,7.12
2023-05-10T02:42:07.393Z,6.99
2023-05-10T02:43:07.389Z,7.34
2023-05-10T02:44:07.403Z,7.33
2023-05-10T02:45:07.456Z,7.19
2023-05-10T02:46:07.486Z,7.31
2023-05-10T02:47:07.495Z,7.42
2023-05-10T02:48:07.542Z,7.27
2023-05-10T02:49:07.501Z,7.26
2023-05-10T02:50:07.546Z,7.19
2023-05-10T02:51:07.556Z,7.42
2023-05-10T02:52:07.565Z,7.35
2023-05-10T02:53:07.596Z,7.35
2023-05-10T02:54:07.597Z,7.21
2023-05-10T02:55:07.601Z,7.24
2023-05-10T02:56:07.667Z,7.33
2023-05-10T02:57:07.628Z,7.33
2023-05-10T02:58:07.680Z,7.28
2023-05-10T02:59:07.672Z,7.21
2023-05-10T03:00:07.702Z,7.12
2023-05-10T03:01:07.738Z,7.20
2023-05-10T03:02:07.730Z,7.18
2023-05-10T03:03:07.793Z,7.08
2023-05-10T03:04:07.775Z,7.13
2023-05-10T03:05:07.813Z,7.08
2023-05-10T03:06:07.819Z,7.08
2023-05-10T03:07:07.788Z,7.02
2023-05-10T03:08:07.821Z,7.09
2023-05-10T03:09:07.906Z,7.32
2023-05-10T03:10:07.919Z,6.98
2023-05-10T03:11:07.914Z,7.12
2023-05-10T03:12:07.964Z,7.17
2023-05-10T03:13:08.036Z,7.07
2023-05-10T03:14:08.001Z,7.06
2023-05-10T03:15:08.019Z,7.03
2023-05-10T03:16:08.130Z,7.04
2023-05-10T03:17:08.082Z,7.08
2023-05-10T03:18:08.116Z,6.95
2023-05-10T03:19:08.147Z,7.08
2023-05-10T03:20:08.171Z,7.21
2023-05-10T03:21:08.155Z,7.08
2023-05-10T03:22:08.191Z,7.06
2023-05-10T03:23:08.196Z,7.15
2023-05-10T03:24:08.202Z,6.96
2023-05-10T03:25:08.274Z,7.10
2023-05-10T03:26:08.249Z,7.04
2023-05-10T03:27:08.301Z,7.11
2023-05-10T03:28:08.341Z,7.15
2023-05-10T03:29:08.411Z,7.07
2023-05-10T03:30:08.368Z,7.04
2023-05-10T03:31:08.435Z,7.02
2023-05-10T03:32:08.398Z,7.03
2023-05-10T03:33:08.419Z,7.03
2023-05-10T03:34:08.489Z,7.06
2023-05-10T03:35:08.482Z,7.14
2023-05-10T03:36:08.461Z,7.01
2023-05-10T03:37:08.509Z,6.95
2023-05-10T03:38:08.514Z,6.74
2023-05-10T03:39:08.577Z,6.88
2023-05-10T03:40:08.602Z,6.98
2023-05-10T03:41:08.632Z,6.98
2023-05-10T03:42:08.613Z,7.00
2023-05-10T03:43:08.658Z,6.87
2023-05-10T03:44:08.645Z,6.96
2023-05-10T03:45:08.708Z,7.03
2023-05-10T03:46:08.745Z,6.95
2023-05-10T03:47:09.062Z,7.13
2023-05-10T03:48:08.790Z,6.93
2023-05-10T03:49:08.754Z,7.06
2023-05-10T03:50:08.806Z,7.09
2023-05-10T03:51:08.803Z,7.03
2023-05-10T03:52:08.844Z,7.02
2023-05-10T03:53:08.888Z,6.99
2023-05-10T03:54:08.862Z,7.01
2023-05-10T03:55:08.918Z,6.93
2023-05-10T03:56:08.945Z,6.88
2023-05-10T03:57:08.946Z,7.06
2023-05-10T03:58:08.953Z,7.05
2023-05-10T03:59:08.995Z,7.07
2023-05-10T04:00:08.998Z,7.01
2023-05-10T04:01:09.111Z,6.92
2023-05-10T04:02:09.130Z,6.87
2023-05-10T04:03:09.154Z,6.88
2023-05-10T04:04:09.110Z,6.94
2023-05-10T04:05:09.100Z,6.67
2023-05-10T04:06:09.193Z,6.28
2023-05-10T04:07:09.185Z,5.99
2023-05-10T04:08:09.238Z,5.78
2023-05-10T04:09:09.200Z,5.55
2023-05-10T04:10:09.206Z,5.50
2023-05-10T04:11:09.250Z,5.22
2023-05-10T04:12:10.864Z,5.07
2023-05-10T04:13:09.344Z,5.04
2023-05-10T04:14:09.326Z,4.89
2023-05-10T04:15:09.376Z,4.82
2023-05-10T04:16:09.448Z,4.67
2023-05-10T04:17:09.536Z,4.58
2023-05-10T04:18:09.566Z,4.41
2023-05-10T04:19:09.652Z,4.36
2023-05-10T04:20:09.654Z,4.38
2023-05-10T04:21:09.741Z,4.35
2023-05-10T04:22:09.760Z,4.36
2023-05-10T04:23:09.799Z,4.06
2023-05-10T04:24:09.883Z,4.17
2023-05-10T04:25:09.912Z,4.18
2023-05-10T04:26:09.968Z,4.13
2023-05-10T04:27:10.046Z,4.08
2023-05-10T04:28:10.098Z,4.00
2023-05-10T04:29:10.097Z,3.89
2023-05-10T04:30:10.164Z,3.88
2023-05-10T04:31:10.219Z,3.78
2023-05-10T04:32:10.321Z,3.47
2023-05-10T04:33:10.315Z,3.49
2023-05-10T04:34:10.388Z,3.56
2023-05-10T04:35:10.444Z,3.47
2023-05-10T04:36:10.514Z,3.54
2023-05-10T04:37:10.655Z,3.58
2023-05-10T04:38:10.662Z,3.52
2023-05-10T04:39:10.667Z,3.73
2023-05-10T04:40:10.722Z,3.66
2023-05-10T04:41:10.795Z,3.77
2023-05-10T04:42:10.850Z,3.79
2023-05-10T04:43:10.901Z,3.87
2023-05-10T04:44:10.973Z,3.98
2023-05-10T04:45:11.003Z,3.95
2023-05-10T04:46:11.107Z,3.99
2023-05-10T04:47:12.777Z,3.93
2023-05-10T04:48:11.181Z,3.97
2023-05-10T04:49:11.201Z,4.08
2023-05-10T04:50:11.297Z,4.10
2023-05-10T04:51:11.321Z,4.16
2023-05-10T04:52:11.406Z,4.06
2023-05-10T04:53:11.431Z,4.20
2023-05-10T04:54:11.552Z,4.13
2023-05-10T04:55:11.602Z,4.14
2023-05-10T04:56:11.633Z,4.23
2023-05-10T04:57:11.669Z,4.15
2023-05-10T04:58:11.722Z,4.28
2023-05-10T04:59:11.792Z,4.42
2023-05-10T05:00:11.838Z,4.38
2023-05-10T05:01:11.925Z,4.41
2023-05-10T05:02:11.934Z,4.38
2023-05-10T05:03:12.096Z,4.36
2023-05-10T05:04:12.076Z,4.24
2023-05-10T05:05:12.075Z,4.36
2023-05-10T05:06:12.127Z,4.43
2023-05-10T05:07:12.172Z,4.45
2023-05-10T05:08:12.221Z,4.43
2023-05-10T05:09:12.298Z,4.46
2023-05-10T05:10:12.315Z,4.53
2023-05-10T05:11:12.375Z,4.37
2023-05-10T05:12:12.438Z,4.38
2023-05-10T05:13:12.575Z,4.41
2023-05-10T05:14:12.531Z,4.50
2023-05-10T05:15:12.555Z,4.47
2023-05-10T05:16:12.688Z,4.47
2023-05-10T05:17:12.631Z,4.42
2023-05-10T05:18:12.732Z,4.36
2023-05-10T05:19:12.757Z,4.46
2023-05-10T05:20:12.759Z,4.41
2023-05-10T05:21:12.808Z,4.48
2023-05-10T05:22:12.854Z,4.41
2023-05-10T05:23:12.864Z,4.49
2023-05-10T05:24:12.922Z,4.42
2023-05-10T05:25:13.001Z,4.37
2023-05-10T05:26:13.012Z,4.41
2023-05-10T05:27:13.022Z,4.36
2023-05-10T05:28:13.060Z,4.42
2023-05-10T05:29:13.120Z,4.34
2023-05-10T05:30:13.167Z,4.33
2023-05-10T05:31:13.230Z,4.29
2023-05-10T05:32:13.395Z,4.43
2023-05-10T05:33:13.328Z,4.30
2023-05-10T05:34:13.358Z,4.30
2023-05-10T05:35:13.408Z,4.02
2023-05-10T05:36:13.424Z,4.17
2023-05-10T05:37:13.470Z,4.17
2023-05-10T05:38:13.521Z,4.14
2023-05-10T05:39:13.600Z,4.16
2023-05-10T05:40:13.675Z,4.12
2023-05-10T05:41:13.654Z,4.22
2023-05-10T05:42:13.712Z,4.08
2023-05-10T05:43:13.764Z,4.24
2023-05-10T05:44:13.753Z,4.14
2023-05-10T05:45:13.967Z,4.13
2023-05-10T05:46:13.840Z,4.12
2023-05-10T05:47:13.851Z,4.22
2023-05-10T05:48:13.843Z,4.17
2023-05-10T05:49:13.911Z,4.28
2023-05-10T05:50:13.950Z,4.21
2023-05-10T05:51:13.979Z,4.32
2023-05-10T05:52:13.985Z,4.45
2023-05-10T05:53:13.996Z,4.52
2023-05-10T05:54:14.006Z,4.58
2023-05-10T05:55:14.115Z,4.50
2023-05-10T05:56:14.045Z,4.40
2023-05-10T05:57:14.065Z,4.40
2023-05-10T05:58:14.061Z,4.30
2023-05-10T05:59:14.070Z,4.34
2023-05-10T06:00:14.099Z,4.16
2023-05-10T06:01:14.104Z,4.20
2023-05-10T06:02:14.169Z,4.20
2023-05-10T06:03:14.227Z,4.05
2023-05-10T06:04:14.155Z,4.04
2023-05-10T06:05:14.441Z,4.07
2023-05-10T06:06:14.145Z,3.85
2023-05-10T06:07:14.155Z,3.93
2023-05-10T06:08:14.139Z,3.88
2023-05-10T06:09:14.210Z,3.83
2023-05-10T06:10:14.164Z,3.80
2023-05-10T06:11:14.244Z,3.80
2023-05-10T06:12:14.192Z,3.69
2023-05-10T06:13:14.212Z,3.68
2023-05-10T06:14:14.174Z,3.77
2023-05-10T06:15:14.336Z,3.83
2023-05-10T06:16:14.253Z,3.89
2023-05-10T06:17:14.180Z,3.83
2023-05-10T06:18:14.237Z,3.93
2023-05-10T06:19:14.175Z,3.92
2023-05-10T06:20:14.212Z,3.86
2023-05-10T06:21:14.159Z,3.90
2023-05-10T06:22:14.183Z,3.85
2023-05-10T06:23:14.156Z,3.97
2023-05-10T06:24:14.170Z,3.97
2023-05-10T06:25:14.323Z,3.81
2023-05-10T06:26:14.192Z,3.91
2023-05-10T06:27:14.189Z,3.94
2023-05-10T06:28:14.215Z,3.94
2023-05-10T06:29:14.180Z,4.02
2023-05-10T06:30:14.186Z,4.18
2023-05-10T06:31:14.194Z,4.21
2023-05-10T06:32:14.198Z,4.28
2023-05-10T06:33:14.248Z,4.31
2023-05-10T06:34:14.273Z,4.21
2023-05-10T06:35:14.336Z,4.44
2023-05-10T06:36:14.393Z,4.48
2023-05-10T06:37:14.364Z,4.37
2023-05-10T06:38:14.363Z,4.36
2023-05-10T06:39:14.396Z,4.16
2023-05-10T06:40:14.457Z,3.68
2023-05-10T06:41:14.461Z,3.14
2023-05-10T06:42:14.464Z,2.69
2023-05-10T06:43:14.473Z,2.76
2023-05-10T06:44:14.732Z,2.83
2023-05-10T06:45:14.886Z,3.03
2023-05-10T06:46:14.660Z,3.11
2023-05-10T06:47:14.641Z,3.16
2023-05-10T06:48:14.687Z,3.22
2023-05-10T06:49:14.724Z,3.30
2023-05-10T06:50:14.735Z,3.32
2023-05-10T06:51:14.739Z,3.52
2023-05-10T06:52:14.768Z,3.56
2023-05-10T06:53:14.749Z,3.56
2023-05-10T06:54:14.793Z,3.73
2023-05-10T06:55:14.960Z,3.60
2023-05-10T06:56:14.752Z,3.78
2023-05-10T06:57:27.642Z,3.84
2023-05-10T06:58:15.764Z,3.84
2023-05-10T06:59:14.799Z,3.89
2023-05-10T07:00:14.885Z,3.97
2023-05-10T07:01:14.930Z,4.13
2023-05-10T07:02:14.821Z,4.32
2023-05-10T07:03:14.746Z,4.31
2023-05-10T07:04:14.809Z,4.25
2023-05-10T07:05:14.741Z,4.25
2023-05-10T07:06:29.408Z,4.25
2023-05-10T07:07:15.713Z,4.27
2023-05-10T07:08:14.713Z,4.30
2023-05-10T07:09:14.740Z,4.38
2023-05-10T07:10:14.697Z,4.52
2023-05-10T07:11:14.660Z,4.55
2023-05-10T07:12:15.660Z,4.59
2023-05-10T07:13:14.802Z,4.55
2023-05-10T07:14:14.647Z,4.55
2023-05-10T07:15:14.954Z,4.46
2023-05-10T07:16:14.720Z,4.49
2023-05-10T07:17:14.691Z,4.40
2023-05-10T07:18:14.808Z,4.40
2023-05-10T07:19:15.255Z,4.53
2023-05-10T07:20:14.927Z,4.51
2023-05-10T07:21:15.033Z,4.63
2023-05-10T07:22:15.047Z,4.52
2023-05-10T07:23:15.095Z,4.51
2023-05-10T07:24:15.131Z,4.45
2023-05-10T07:25:15.330Z,4.45
2023-05-10T07:26:15.258Z,4.55
2023-05-10T07:27:15.310Z,4.50
2023-05-10T07:28:15.352Z,4.52
2023-05-10T07:29:15.430Z,4.68
2023-05-10T07:30:15.504Z,4.70
2023-05-10T07:31:15.492Z,4.71
2023-05-10T07:32:15.697Z,4.89
2023-05-10T07:33:15.686Z,4.90
2023-05-10T07:34:15.695Z,4.59
2023-05-10T07:35:15.911Z,4.67
2023-05-10T07:36:16.248Z,4.83
2023-05-10T07:37:15.829Z,4.83
2023-05-10T07:38:15.915Z,4.88
2023-05-10T07:39:21.394Z,5.15
2023-05-10T07:40:16.971Z,5.16
2023-05-10T07:41:16.273Z,5.24
2023-05-10T07:42:15.917Z,5.37
2023-05-10T07:43:15.878Z,5.66
2023-05-10T07:44:15.906Z,6.18
2023-05-10T07:45:16.094Z,6.22
2023-05-10T07:46:15.903Z,6.12
2023-05-10T07:47:15.878Z,6.13
2023-05-10T07:48:15.907Z,5.71
2023-05-10T07:49:15.868Z,5.73
2023-05-10T07:50:15.839Z,5.85
2023-05-10T07:51:15.849Z,5.88
2023-05-10T07:52:16.135Z,5.81
2023-05-10T07:53:15.826Z,5.74
2023-05-10T07:54:15.824Z,5.71
2023-05-10T07:55:16.044Z,5.61
2023-05-10T07:56:15.864Z,5.68
2023-05-10T07:57:15.904Z,5.72
2023-05-10T07:58:15.955Z,5.61
2023-05-10T07:59:15.997Z,5.90
2023-05-10T08:00:16.008Z,5.75
2023-05-10T08:01:16.033Z,5.78
2023-05-10T08:02:16.137Z,5.51
2023-05-10T08:03:16.331Z,5.62
2023-05-10T08:04:16.225Z,5.68
2023-05-10T08:05:16.470Z,5.63
2023-05-10T08:06:16.216Z,5.58
2023-05-10T08:07:16.247Z,5.73
2023-05-10T08:08:16.227Z,5.78
2023-05-10T08:09:16.266Z,5.48
2023-05-10T08:10:16.277Z,5.55
2023-05-10T08:11:16.279Z,5.71
2023-05-10T08:12:16.345Z,5.71
2023-05-10T08:13:16.801Z,5.29
2023-05-10T08:14:16.406Z,3.99
2023-05-10T08:15:16.685Z,3.29
2023-05-10T08:16:16.564Z,2.88
2023-05-10T08:17:17.332Z,2.76
2023-05-10T08:18:16.811Z,2.71
2023-05-10T08:19:16.639Z,2.64
2023-05-10T08:20:16.681Z,2.52
2023-05-10T08:21:16.768Z,2.20
2023-05-10T08:22:16.695Z,2.05
2023-05-10T08:23:16.745Z,1.89
2023-05-10T08:24:16.717Z,2.06
2023-05-10T08:25:16.863Z,2.04
2023-05-10T08:26:16.777Z,1.88
2023-05-10T08:27:16.785Z,1.79
2023-05-10T08:28:16.842Z,1.88
2023-05-10T08:29:16.825Z,2.10
2023-05-10T08:30:16.880Z,2.13
2023-05-10T08:31:16.974Z,2.20
2023-05-10T08:32:16.921Z,1.97
2023-05-10T08:33:16.910Z,1.82
2023-05-10T08:34:16.960Z,1.77
2023-05-10T08:35:17.214Z,1.76
2023-05-10T08:36:17.026Z,1.72
2023-05-10T08:37:17.134Z,1.79
2023-05-10T08:38:17.153Z,1.65
2023-05-10T08:39:29.383Z,1.66
2023-05-10T08:40:18.173Z,1.67
2023-05-10T08:41:17.207Z,1.67
2023-05-10T08:42:17.132Z,1.74
2023-05-10T08:43:17.105Z,1.83
2023-05-10T08:44:17.117Z,2.19
2023-05-10T08:45:17.311Z,2.26
2023-05-10T08:46:17.151Z,2.32
2023-05-10T08:47:17.106Z,2.39
2023-05-10T08:48:17.109Z,2.45
2023-05-10T08:49:17.136Z,2.43
2023-05-10T08:50:17.086Z,2.49
2023-05-10T08:51:17.288Z,2.47
2023-05-10T08:52:17.057Z,2.48
2023-05-10T08:53:17.065Z,2.42
2023-05-10T08:54:17.055Z,2.44
2023-05-10T08:55:17.234Z,2.47
2023-05-10T08:56:17.065Z,2.46
2023-05-10T08:57:17.045Z,2.43
2023-05-10T08:58:17.301Z,2.38
2023-05-10T08:59:17.092Z,2.27
2023-05-10T09:00:17.133Z,2.21
2023-05-10T09:01:17.303Z,2.21
2023-05-10T09:02:18.804Z,2.21
2023-05-10T09:03:17.274Z,2.16
2023-05-10T09:04:17.357Z,2.18
2023-05-10T09:05:17.494Z,2.11
2023-05-10T09:06:17.379Z,2.12
2023-05-10T09:07:17.433Z,2.07
2023-05-10T09:08:17.559Z,1.96
2023-05-10T09:09:17.463Z,1.99
2023-05-10T09:10:17.505Z,2.05
2023-05-10T09:11:17.519Z,1.98
2023-05-10T09:12:17.544Z,2.00
2023-05-10T09:13:17.544Z,2.05
2023-05-10T09:14:17.588Z,2.16
2023-05-10T09:15:17.807Z,2.26
2023-05-10T09:16:21.566Z,2.26
2023-05-10T09:17:17.693Z,2.23
2023-05-10T09:18:17.685Z,2.25
2023-05-10T09:19:17.611Z,2.26
2023-05-10T09:20:17.634Z,2.25
2023-05-10T09:21:17.670Z,2.21
2023-05-10T09:22:17.576Z,2.12
2023-05-10T09:23:17.588Z,2.12
2023-05-10T09:24:17.564Z,2.04
2023-05-10T09:25:17.971Z,2.10
2023-05-10T09:26:17.545Z,2.15
2023-05-10T09:27:17.841Z,2.08
2023-05-10T09:28:17.555Z,1.94
2023-05-10T09:29:17.990Z,1.89
2023-05-10T09:30:17.562Z,1.80
2023-05-10T09:31:17.592Z,1.85
2023-05-10T09:32:17.565Z,1.94
2023-05-10T09:33:17.871Z,1.94
2023-05-10T09:34:17.506Z,1.91
2023-05-10T09:35:17.760Z,1.82
2023-05-10T09:36:17.510Z,1.79
2023-05-10T09:37:17.485Z,1.94
2023-05-10T09:38:17.515Z,2.01
2023-05-10T09:39:17.804Z,2.06
2023-05-10T09:40:18.280Z,2.24
2023-05-10T09:41:17.470Z,2.24
2023-05-10T09:42:17.470Z,2.36
2023-05-10T09:43:17.433Z,2.31
2023-05-10T09:44:17.432Z,2.48
2023-05-10T09:45:17.826Z,2.51
2023-05-10T09:46:17.487Z,2.54
2023-05-10T09:47:17.447Z,2.57
2023-05-10T09:48:17.404Z,2.64
2023-05-10T09:49:17.452Z,2.78
2023-05-10T09:50:17.679Z,2.80
2023-05-10T09:51:17.573Z,2.87
2023-05-10T09:52:17.660Z,2.76
2023-05-10T09:53:17.640Z,2.89
2023-05-10T09:54:17.762Z,2.98
2023-05-10T09:55:18.019Z,2.95
2023-05-10T09:56:17.825Z,2.96
2023-05-10T09:57:18.322Z,2.82
2023-05-10T09:58:17.931Z,2.90
2023-05-10T09:59:18.017Z,2.96
2023-05-10T10:00:18.056Z,2.70
2023-05-10T10:01:18.168Z,2.64
2023-05-10T10:02:18.166Z,2.53
2023-05-10T10:03:18.231Z,2.63
2023-05-10T10:04:18.302Z,2.93
2023-05-10T10:05:18.621Z,2.91
2023-05-10T10:06:29.051Z,2.89
2023-05-10T10:07:19.377Z,2.90
2023-05-10T10:08:18.457Z,2.90
2023-05-10T10:09:18.340Z,2.90
2023-05-10T10:10:18.366Z,2.88
2023-05-10T10:11:18.327Z,2.87
2023-05-10T10:12:18.341Z,2.82
2023-05-10T10:13:18.357Z,2.87
2023-05-10T10:14:19.964Z,2.64
2023-05-10T10:15:18.673Z,2.70
2023-05-10T10:16:18.397Z,2.78
2023-05-10T10:17:18.308Z,2.85
2023-05-10T10:18:18.381Z,2.89
2023-05-10T10:19:18.831Z,2.91
2023-05-10T10:20:18.586Z,2.94
2023-05-10T10:21:18.494Z,2.96
2023-05-10T10:22:18.852Z,2.92
2023-05-10T10:23:18.565Z,2.77
2023-05-10T10:24:18.598Z,2.81
2023-05-10T10:25:18.922Z,2.88
2023-05-10T10:26:18.857Z,2.81
2023-05-10T10:27:18.751Z,2.96
2023-05-10T10:28:18.758Z,2.91
2023-05-10T10:29:18.797Z,3.01
2023-05-10T10:30:18.888Z,3.17
2023-05-10T10:31:18.869Z,3.30
2023-05-10T10:32:18.895Z,3.31
2023-05-10T10:33:27.757Z,3.32
2023-05-10T10:34:19.870Z,3.33
2023-05-10T10:35:19.368Z,3.32
2023-05-10T10:36:18.864Z,3.03
2023-05-10T10:37:18.887Z,3.02
2023-05-10T10:38:18.854Z,3.03
2023-05-10T10:39:18.838Z,3.43
2023-05-10T10:40:18.836Z,3.95
2023-05-10T10:41:18.838Z,4.10
2023-05-10T10:42:18.801Z,4.06
2023-05-10T10:43:18.816Z,4.06
2023-05-10T10:44:18.897Z,3.84
2023-05-10T10:45:18.992Z,4.10
2023-05-10T10:46:19.095Z,4.37
2023-05-10T10:47:18.793Z,4.36
2023-05-10T10:48:18.782Z,4.37
2023-05-10T10:49:18.821Z,4.15
2023-05-10T10:50:18.775Z,4.20
2023-05-10T10:51:18.769Z,4.33
2023-05-10T10:52:18.766Z,4.04
2023-05-10T10:53:18.820Z,4.09
2023-05-10T10:54:18.774Z,4.19
2023-05-10T10:55:18.970Z,4.14
2023-05-10T10:56:18.730Z,4.35
2023-05-10T10:57:18.719Z,4.49
2023-05-10T10:58:18.712Z,4.30
2023-05-10T10:59:18.706Z,4.07
2023-05-10T11:00:18.699Z,4.06
2023-05-10T11:01:18.704Z,4.11
2023-05-10T11:02:18.672Z,4.40
2023-05-10T11:03:18.768Z,4.11
2023-05-10T11:04:18.729Z,4.05
2023-05-10T11:05:18.897Z,4.22
2023-05-10T11:06:18.646Z,3.79
2023-05-10T11:07:18.656Z,3.92
2023-05-10T11:08:18.875Z,4.08
2023-05-10T11:09:18.624Z,4.24
2023-05-10T11:10:18.649Z,3.92
2023-05-10T11:11:18.726Z,3.67
2023-05-10T11:12:18.800Z,3.36
2023-05-10T11:13:18.831Z,3.37
2023-05-10T11:14:18.912Z,3.35
2023-05-10T11:15:19.079Z,3.31
2023-05-10T11:16:19.070Z,3.28
2023-05-10T11:17:19.463Z,3.37
2023-05-10T11:18:19.117Z,3.33
2023-05-10T11:19:19.148Z,3.22
2023-05-10T11:20:19.436Z,2.92
2023-05-10T11:21:19.290Z,2.88
2023-05-10T11:22:19.285Z,2.76
2023-05-10T11:23:19.316Z,2.70
2023-05-10T11:24:19.350Z,2.49
2023-05-10T11:25:19.395Z,2.48
2023-05-10T11:26:19.411Z,2.35
2023-05-10T11:27:19.474Z,2.22
2023-05-10T11:28:19.455Z,2.11
2023-05-10T11:29:19.494Z,2.05
2023-05-10T11:30:19.691Z,1.86
2023-05-10T11:31:19.484Z,1.87
2023-05-10T11:32:19.459Z,1.82
2023-05-10T11:33:19.457Z,1.69
2023-05-10T11:34:19.449Z,1.57
2023-05-10T11:35:19.507Z,1.54
2023-05-10T11:36:19.472Z,1.55
2023-05-10T11:37:19.472Z,1.52
2023-05-10T11:38:19.463Z,1.49
2023-05-10T11:39:19.489Z,1.43
2023-05-10T11:40:19.570Z,1.45
2023-05-10T11:41:19.523Z,1.41
2023-05-10T11:42:19.485Z,1.35
2023-05-10T11:43:19.478Z,1.36
2023-05-10T11:44:19.468Z,1.29
2023-05-10T11:45:19.509Z,1.30
2023-05-10T11:46:19.501Z,1.18
2023-05-10T11:47:19.499Z,1.11
2023-05-10T11:48:19.622Z,1.06
2023-05-10T11:49:19.565Z,0.98
2023-05-10T11:50:19.687Z,0.96
2023-05-10T11:51:19.512Z,0.94
2023-05-10T11:52:19.550Z,0.92
2023-05-10T11:53:19.582Z,0.87
2023-05-10T11:54:19.564Z,0.85
2023-05-10T11:55:19.577Z,0.86
2023-05-10T11:56:19.543Z,0.93
2023-05-10T11:57:19.574Z,0.93
2023-05-10T11:58:19.550Z,0.91
2023-05-10T11:59:19.580Z,0.93
2023-05-10T12:00:19.923Z,0.90
2023-05-10T12:01:19.663Z,0.89
2023-05-10T12:02:19.673Z,0.91
2023-05-10T12:03:19.718Z,0.92
2023-05-10T12:04:19.932Z,0.94
2023-05-10T12:05:19.601Z,0.93
2023-05-10T12:06:19.577Z,0.98
2023-05-10T12:07:19.618Z,1.01
2023-05-10T12:08:19.584Z,1.05
2023-05-10T12:09:31.459Z,1.05
2023-05-10T12:10:21.149Z,1.05
2023-05-10T12:11:19.587Z,1.06
2023-05-10T12:12:19.608Z,1.08
2023-05-10T12:13:19.558Z,1.10
2023-05-10T12:14:19.530Z,1.20
2023-05-10T12:15:19.564Z,1.27
2023-05-10T12:16:19.643Z,1.31
2023-05-10T12:17:19.514Z,1.35
2023-05-10T12:18:19.537Z,1.36
2023-05-10T12:19:19.495Z,1.38
2023-05-10T12:20:19.734Z,1.45
2023-05-10T12:21:19.500Z,1.49
2023-05-10T12:22:19.531Z,1.52
2023-05-10T12:23:19.466Z,1.55
2023-05-10T12:24:19.492Z,1.56
2023-05-10T12:25:19.508Z,1.61
2023-05-10T12:26:19.522Z,1.63
2023-05-10T12:27:19.437Z,1.66
2023-05-10T12:28:19.451Z,1.75
2023-05-10T12:29:19.507Z,1.76
2023-05-10T12:30:19.430Z,1.77
2023-05-10T12:31:19.473Z,1.79
2023-05-10T12:32:19.404Z,1.80
2023-05-10T12:33:19.433Z,1.83
2023-05-10T12:34:19.416Z,1.88
2023-05-10T12:35:19.407Z,1.87
2023-05-10T12:36:19.403Z,1.94
2023-05-10T12:37:19.392Z,2.00
2023-05-10T12:38:19.431Z,2.02
2023-05-10T12:39:19.359Z,2.04
2023-05-10T12:40:19.483Z,2.08
2023-05-10T12:41:19.417Z,2.13
2023-05-10T12:42:19.350Z,2.14
2023-05-10T12:43:19.377Z,2.16
2023-05-10T12:44:19.361Z,2.21
2023-05-10T12:45:19.345Z,2.16
2023-05-10T12:46:19.351Z,2.20
2023-05-10T12:47:19.332Z,2.26
2023-05-10T12:48:19.344Z,2.30
2023-05-10T12:49:19.318Z,2.30
2023-05-10T12:50:19.464Z,2.32
2023-05-10T12:51:19.318Z,2.37
2023-05-10T12:52:19.313Z,2.39
2023-05-10T12:53:19.321Z,2.42
2023-05-10T12:54:19.317Z,2.47
2023-05-10T12:55:19.310Z,2.48
2023-05-10T12:56:19.298Z,2.48
2023-05-10T12:57:19.304Z,2.47
2023-05-10T12:58:34.405Z,2.48
2023-05-10T12:59:20.438Z,2.48
2023-05-10T13:00:19.354Z,2.50
2023-05-10T13:01:19.339Z,2.51
2023-05-10T13:02:19.293Z,2.54
2023-05-10T13:03:19.294Z,2.64
2023-05-10T13:04:19.309Z,2.58
2023-05-10T13:05:19.260Z,2.64
2023-05-10T13:06:19.255Z,2.65
2023-05-10T13:07:19.210Z,2.64
2023-05-10T13:08:19.225Z,2.69
2023-05-10T13:09:19.341Z,2.71
2023-05-10T13:10:19.499Z,2.66
2023-05-10T13:11:19.228Z,2.63
2023-05-10T13:12:19.224Z,2.66
2023-05-10T13:13:19.274Z,2.73
2023-05-10T13:14:19.186Z,2.72
2023-05-10T13:15:19.172Z,2.69
2023-05-10T13:16:19.225Z,2.70
2023-05-10T13:17:19.204Z,2.68
2023-05-10T13:18:19.232Z,2.69